Time;durP1;ratioP1;P1;durP2;ratioP2;P2;SDS_P1;SDS_P2;PMS_P1;PMS_P2;Temp;Humidity;BMP_temperature;BMP_pressure;BME280_temperature;BME280_humidity;BME280_pressure;Samples;Min_cycle;Max_cycle;Signal;HPM_P1;HPM_P2
2024/01/11 00:02:05;;;;;;;37.42;20.67;;;;;;;;;;5024573;28;20029;-81
2024/01/11 00:04:31;;;;;;;33.75;20.27;;;;;;;;;;5011118;28;20076;-81
2024/01/11 00:06:58;;;;;;;32.67;20.00;;;;;;;;;;5021293;28;20049;-80
2024/01/11 00:09:24;;;;;;;32.40;18.15;;;;;;;;;;5011765;28;20471;-82
2024/01/11 00:11:50;;;;;;;31.33;18.67;;;;;;;;;;5031225;28;20060;-83
2024/01/11 00:14:16;;;;;;;35.72;19.35;;;;;;;;;;5036820;28;20079;-82
2024/01/11 00:16:42;;;;;;;31.48;18.73;;;;;;;;;;5036797;28;20021;-82
2024/01/11 00:19:09;;;;;;;30.58;17.38;;;;;;;;;;5021796;28;20022;-82
2024/01/11 00:21:35;;;;;;;35.05;18.83;;;;;;;;;;5016439;28;20034;-82
2024/01/11 00:24:01;;;;;;;32.05;17.77;;;;;;;;;;5017662;28;20034;-80
2024/01/11 00:26:27;;;;;;;34.88;18.45;;;;;;;;;;5019996;28;20554;-81
2024/01/11 00:28:53;;;;;;;33.58;19.65;;;;;;;;;;5027467;28;20021;-81
2024/01/11 00:31:19;;;;;;;33.88;19.30;;;;;;;;;;5031364;28;20037;-80
2024/01/11 00:33:46;;;;;;;35.80;18.90;;;;;;;;;;5027718;28;20038;-81
2024/01/11 00:36:17;;;;;;;35.22;19.48;;;;;;;;;;5023953;28;20098;-81
2024/01/11 00:38:43;;;;;;;34.57;19.77;;;;;;;;;;5019058;28;20101;-80
2024/01/11 00:41:09;;;;;;;32.25;19.48;;;;;;;;;;5022653;28;20296;-81
2024/01/11 00:43:35;;;;;;;35.05;20.67;;;;;;;;;;5019566;28;20026;-82
2024/01/11 00:46:01;;;;;;;40.10;20.95;;;;;;;;;;5027041;28;20030;-82
2024/01/11 00:48:27;;;;;;;34.70;19.23;;;;;;;;;;5022928;28;20049;-81
2024/01/11 00:50:54;;;;;;;35.92;19.80;;;;;;;;;;5015360;28;20057;-82
2024/01/11 00:53:20;;;;;;;33.22;18.50;;;;;;;;;;5028405;28;20368;-82
2024/01/11 00:55:46;;;;;;;35.63;19.58;;;;;;;;;;5018628;28;20036;-82
2024/01/11 00:58:12;;;;;;;35.13;20.15;;;;;;;;;;5022215;28;20044;-82
2024/01/11 01:00:38;;;;;;;36.25;20.73;;;;;;;;;;5023650;28;20124;-83
2024/01/11 01:03:04;;;;;;;38.78;21.05;;;;;;;;;;5013749;28;20040;-82
2024/01/11 01:05:30;;;;;;;40.97;21.83;;;;;;;;;;5028672;28;20057;-82
2024/01/11 01:07:56;;;;;;;35.22;21.08;;;;;;;;;;5019750;28;20073;-82
2024/01/11 01:10:23;;;;;;;37.13;20.08;;;;;;;;;;5020778;28;20894;-83
2024/01/11 01:12:49;;;;;;;33.63;20.08;;;;;;;;;;5016924;28;20057;-82
2024/01/11 01:15:15;;;;;;;41.83;22.15;;;;;;;;;;5022339;28;20064;-81
2024/01/11 01:17:41;;;;;;;36.83;20.08;;;;;;;;;;5003582;28;20231;-81
2024/01/11 01:20:07;;;;;;;41.67;22.42;;;;;;;;;;5009660;28;20542;-82
2024/01/11 01:22:34;;;;;;;39.03;21.90;;;;;;;;;;5022007;28;20037;-82
2024/01/11 01:25:00;;;;;;;37.70;21.20;;;;;;;;;;5019258;28;20035;-82
2024/01/11 01:27:26;;;;;;;36.67;21.13;;;;;;;;;;5010117;28;20106;-82
2024/01/11 01:29:52;;;;;;;42.22;23.02;;;;;;;;;;5014108;28;20278;-82
2024/01/11 01:32:18;;;;;;;38.35;21.92;;;;;;;;;;5018525;28;20040;-82
2024/01/11 01:34:44;;;;;;;38.53;21.02;;;;;;;;;;5021558;28;20044;-82
2024/01/11 01:37:10;;;;;;;41.92;21.83;;;;;;;;;;5027737;28;20029;-83
2024/01/11 01:39:39;;;;;;;41.17;21.63;;;;;;;;;;5002648;28;20029;-83
2024/01/11 01:42:06;;;;;;;38.60;21.10;;;;;;;;;;5006393;28;20053;-83
2024/01/11 01:44:33;;;;;;;40.33;21.10;;;;;;;;;;5013431;28;20487;-83
2024/01/11 01:46:59;;;;;;;39.08;21.95;;;;;;;;;;5022522;28;20418;-83
2024/01/11 01:49:25;;;;;;;44.03;21.48;;;;;;;;;;5016964;28;20033;-83
2024/01/11 01:51:53;;;;;;;41.78;22.00;;;;;;;;;;5009191;28;20105;-82
2024/01/11 01:54:19;;;;;;;39.85;23.17;;;;;;;;;;5013138;28;20034;-83
2024/01/11 01:56:46;;;;;;;41.55;22.85;;;;;;;;;;5026841;28;20070;-83
2024/01/11 01:59:12;;;;;;;41.83;22.35;;;;;;;;;;5018706;28;20092;-83
2024/01/11 02:01:38;;;;;;;38.75;21.92;;;;;;;;;;5021032;28;20061;-83
2024/01/11 02:04:04;;;;;;;39.58;22.05;;;;;;;;;;5018358;28;20033;-82
2024/01/11 02:06:32;;;;;;;42.05;23.50;;;;;;;;;;5010782;28;20046;-82
2024/01/11 02:08:59;;;;;;;38.55;22.73;;;;;;;;;;5007906;28;20034;-82
2024/01/11 02:11:25;;;;;;;42.05;22.58;;;;;;;;;;5008733;28;20041;-82
2024/01/11 02:13:51;;;;;;;40.95;22.27;;;;;;;;;;5011510;28;20483;-82
2024/01/11 02:16:17;;;;;;;36.97;21.73;;;;;;;;;;5022558;28;20024;-82
2024/01/11 02:18:44;;;;;;;41.80;23.13;;;;;;;;;;5022966;28;20030;-81
2024/01/11 02:21:12;;;;;;;42.22;22.25;;;;;;;;;;5010063;28;20476;-82
2024/01/11 02:23:47;;;;;;;42.10;22.10;;;;;;;;;;5010316;28;20492;-82
2024/01/11 02:26:16;;;;;;;40.08;22.50;;;;;;;;;;5015194;28;20034;-81
2024/01/11 02:28:45;;;;;;;36.15;21.15;;;;;;;;;;5014327;28;20423;-80
2024/01/11 02:31:13;;;;;;;37.90;21.88;;;;;;;;;;5024616;28;20119;-81
2024/01/11 02:33:39;;;;;;;42.15;22.10;;;;;;;;;;5023443;28;20108;-81
2024/01/11 02:36:06;;;;;;;40.67;22.63;;;;;;;;;;5013622;28;20037;-82
2024/01/11 02:38:33;;;;;;;39.03;22.10;;;;;;;;;;5015763;28;20028;-82
2024/01/11 02:41:00;;;;;;;38.13;21.25;;;;;;;;;;5011983;28;20141;-82
2024/01/11 02:43:26;;;;;;;36.58;21.10;;;;;;;;;;5025152;28;20491;-83
2024/01/11 02:45:58;;;;;;;34.25;19.95;;;;;;;;;;5017353;28;20133;-83
2024/01/11 02:48:28;;;;;;;39.07;21.93;;;;;;;;;;5011620;28;20029;-82
2024/01/11 02:50:54;;;;;;;37.83;21.40;;;;;;;;;;5012556;28;20749;-83
2024/01/11 02:53:20;;;;;;;38.95;21.65;;;;;;;;;;5012249;28;20499;-84
2024/01/11 02:55:46;;;;;;;41.35;21.88;;;;;;;;;;5015038;28;20029;-83
2024/01/11 02:58:12;;;;;;;37.13;21.13;;;;;;;;;;5045564;28;20211;-83
2024/01/11 03:00:38;;;;;;;40.40;20.63;;;;;;;;;;5025318;28;20067;-82
2024/01/11 03:03:04;;;;;;;41.05;21.77;;;;;;;;;;5029408;28;20150;-82
2024/01/11 03:05:30;;;;;;;38.10;20.85;;;;;;;;;;5018573;28;20048;-83
2024/01/11 03:07:56;;;;;;;39.25;20.50;;;;;;;;;;5019243;28;20045;-84
2024/01/11 03:10:22;;;;;;;45.38;23.38;;;;;;;;;;5021006;28;20034;-83
2024/01/11 03:12:49;;;;;;;37.67;20.48;;;;;;;;;;5011971;28;20030;-83
2024/01/11 03:15:15;;;;;;;40.20;22.13;;;;;;;;;;5013024;28;20113;-83
2024/01/11 03:17:41;;;;;;;41.90;21.60;;;;;;;;;;5011922;28;20492;-82
2024/01/11 03:20:08;;;;;;;35.55;20.48;;;;;;;;;;5022536;28;21021;-82
2024/01/11 03:22:35;;;;;;;39.33;20.90;;;;;;;;;;5018448;28;20093;-81
2024/01/11 03:25:01;;;;;;;42.70;22.15;;;;;;;;;;5021927;28;20030;-81
2024/01/11 03:27:27;;;;;;;40.22;22.27;;;;;;;;;;5021526;28;20099;-81
2024/01/11 03:29:53;;;;;;;41.80;22.25;;;;;;;;;;5023101;28;20037;-82
2024/01/11 03:32:19;;;;;;;38.63;22.52;;;;;;;;;;5025116;28;20044;-82
2024/01/11 03:34:45;;;;;;;39.25;22.50;;;;;;;;;;5028641;28;20129;-82
2024/01/11 03:37:11;;;;;;;35.35;20.77;;;;;;;;;;5021573;28;20061;-82
2024/01/11 03:39:37;;;;;;;38.15;21.08;;;;;;;;;;5021184;28;20549;-82
2024/01/11 03:42:03;;;;;;;35.83;21.40;;;;;;;;;;5024766;28;20467;-82
2024/01/11 03:44:29;;;;;;;41.45;21.10;;;;;;;;;;5020936;28;20104;-82
2024/01/11 03:46:55;;;;;;;37.55;21.27;;;;;;;;;;5026308;28;20041;-83
2024/01/11 03:49:21;;;;;;;40.30;22.77;;;;;;;;;;5017928;28;20040;-83
2024/01/11 03:51:47;;;;;;;43.72;22.30;;;;;;;;;;5015344;28;20029;-82
2024/01/11 03:54:13;;;;;;;39.85;22.38;;;;;;;;;;5011060;28;20077;-82
2024/01/11 03:56:40;;;;;;;39.15;21.85;;;;;;;;;;5038387;28;20029;-81
2024/01/11 03:59:06;;;;;;;40.95;21.70;;;;;;;;;;5017437;28;20435;-81
2024/01/11 04:01:32;;;;;;;41.50;22.23;;;;;;;;;;5013085;28;20383;-81
2024/01/11 04:03:58;;;;;;;43.60;23.00;;;;;;;;;;5016109;28;20080;-80
2024/01/11 04:06:24;;;;;;;38.63;21.85;;;;;;;;;;5010497;28;20061;-82
2024/01/11 04:08:50;;;;;;;39.42;22.10;;;;;;;;;;5015544;28;20541;-82
2024/01/11 04:11:17;;;;;;;41.95;21.40;;;;;;;;;;5030066;28;20034;-82
2024/01/11 04:13:43;;;;;;;42.28;22.33;;;;;;;;;;5014052;28;21327;-81
2024/01/11 04:16:10;;;;;;;40.63;21.67;;;;;;;;;;5019257;28;20029;-81
2024/01/11 04:18:36;;;;;;;34.88;20.02;;;;;;;;;;5006969;28;20014;-81
2024/01/11 04:21:02;;;;;;;39.10;21.02;;;;;;;;;;5017926;28;20479;-81
2024/01/11 04:23:28;;;;;;;37.63;21.33;;;;;;;;;;5010334;28;20014;-82
2024/01/11 04:25:54;;;;;;;42.95;23.42;;;;;;;;;;5022714;28;20400;-81
2024/01/11 04:28:20;;;;;;;39.60;22.88;;;;;;;;;;5024311;28;20025;-81
2024/01/11 04:30:46;;;;;;;37.20;21.10;;;;;;;;;;5014658;28;20041;-81
2024/01/11 04:33:12;;;;;;;37.50;21.83;;;;;;;;;;5014447;28;20025;-80
2024/01/11 04:35:38;;;;;;;39.55;22.02;;;;;;;;;;4995395;28;20025;-81
2024/01/11 04:38:04;;;;;;;44.97;21.40;;;;;;;;;;5022810;28;20053;-81
2024/01/11 04:40:30;;;;;;;41.85;22.85;;;;;;;;;;5018773;28;20061;-82
2024/01/11 04:42:56;;;;;;;44.42;22.40;;;;;;;;;;5026443;28;20466;-82
2024/01/11 04:45:22;;;;;;;43.05;23.35;;;;;;;;;;5015092;28;20407;-82
2024/01/11 04:47:51;;;;;;;41.75;23.10;;;;;;;;;;5026224;28;20426;-82
2024/01/11 04:50:17;;;;;;;40.38;22.13;;;;;;;;;;5015917;28;20037;-81
2024/01/11 04:52:43;;;;;;;44.17;23.13;;;;;;;;;;5010574;28;20022;-82
2024/01/11 04:55:09;;;;;;;41.05;23.08;;;;;;;;;;5015715;28;20018;-82
2024/01/11 04:57:35;;;;;;;42.40;22.80;;;;;;;;;;5017079;28;20368;-82
2024/01/11 05:00:02;;;;;;;45.00;23.65;;;;;;;;;;5018778;28;20926;-83
2024/01/11 05:02:28;;;;;;;45.13;23.88;;;;;;;;;;5023998;28;20030;-83
2024/01/11 05:04:54;;;;;;;43.55;23.27;;;;;;;;;;5019308;28;20076;-83
2024/01/11 05:07:20;;;;;;;41.67;23.00;;;;;;;;;;5009392;28;20050;-82
2024/01/11 05:09:46;;;;;;;49.45;24.67;;;;;;;;;;5009581;28;20026;-83
2024/01/11 05:12:12;;;;;;;43.50;23.42;;;;;;;;;;5018139;28;20052;-82
2024/01/11 05:14:38;;;;;;;47.28;24.20;;;;;;;;;;5009689;28;20026;-82
2024/01/11 05:17:04;;;;;;;45.47;25.73;;;;;;;;;;5025603;28;20080;-82
2024/01/11 05:19:30;;;;;;;42.35;23.27;;;;;;;;;;5009918;28;20041;-83
2024/01/11 05:21:56;;;;;;;46.35;23.88;;;;;;;;;;5021103;28;20034;-82
2024/01/11 05:24:22;;;;;;;41.30;23.05;;;;;;;;;;5013475;28;20032;-82
2024/01/11 05:26:48;;;;;;;45.30;24.35;;;;;;;;;;5025468;28;20018;-82
2024/01/11 05:29:14;;;;;;;44.00;24.20;;;;;;;;;;5023093;28;20029;-82
2024/01/11 05:31:40;;;;;;;47.78;24.73;;;;;;;;;;5016850;28;20025;-82
2024/01/11 05:34:06;;;;;;;56.45;28.40;;;;;;;;;;5022606;28;20032;-82
2024/01/11 05:36:32;;;;;;;43.47;25.50;;;;;;;;;;5016462;28;20109;-82
2024/01/11 05:38:58;;;;;;;50.20;26.85;;;;;;;;;;5009256;28;20026;-83
2024/01/11 05:41:24;;;;;;;46.75;26.77;;;;;;;;;;5008756;28;20038;-83
2024/01/11 05:43:51;;;;;;;43.25;24.23;;;;;;;;;;5017452;28;20026;-83
2024/01/11 05:46:17;;;;;;;45.30;25.45;;;;;;;;;;5017593;28;20455;-83
2024/01/11 05:48:43;;;;;;;51.70;26.58;;;;;;;;;;5023973;28;20497;-84
2024/01/11 05:51:09;;;;;;;45.88;26.08;;;;;;;;;;5017310;28;20674;-83
2024/01/11 05:53:35;;;;;;;50.13;26.73;;;;;;;;;;5012480;28;20053;-83
2024/01/11 05:56:03;;;;;;;44.10;25.40;;;;;;;;;;5011565;28;20040;-83
2024/01/11 05:58:29;;;;;;;46.00;26.17;;;;;;;;;;5016392;28;20026;-84
2024/01/11 06:00:55;;;;;;;49.15;27.35;;;;;;;;;;5014429;28;20030;-89
2024/01/11 06:03:21;;;;;;;43.45;25.75;;;;;;;;;;5012563;28;20025;-83
2024/01/11 06:05:47;;;;;;;47.15;26.88;;;;;;;;;;5013963;28;20088;-85
2024/01/11 06:08:13;;;;;;;47.90;27.70;;;;;;;;;;5015321;28;20049;-85
2024/01/11 06:10:40;;;;;;;50.15;28.73;;;;;;;;;;5012478;28;20033;-86
2024/01/11 06:13:06;;;;;;;57.45;30.02;;;;;;;;;;5018759;28;20030;-83
2024/01/11 06:15:32;;;;;;;49.10;28.27;;;;;;;;;;5023886;28;20140;-83
2024/01/11 06:17:58;;;;;;;50.28;28.67;;;;;;;;;;5027306;28;20076;-82
2024/01/11 06:20:24;;;;;;;53.53;27.83;;;;;;;;;;5031347;28;20030;-82
2024/01/11 06:22:50;;;;;;;45.88;26.00;;;;;;;;;;5026913;28;20030;-83
2024/01/11 06:25:16;;;;;;;52.13;27.98;;;;;;;;;;5027344;28;20022;-83
2024/01/11 06:27:46;;;;;;;44.50;25.50;;;;;;;;;;5016394;28;20029;-83
2024/01/11 06:30:12;;;;;;;45.72;25.98;;;;;;;;;;5042137;28;20045;-83
2024/01/11 06:32:38;;;;;;;49.60;27.35;;;;;;;;;;5027604;28;20025;-83
2024/01/11 06:35:05;;;;;;;48.63;26.73;;;;;;;;;;5027387;28;20030;-83
2024/01/11 06:37:31;;;;;;;52.97;27.85;;;;;;;;;;5031717;28;20038;-83
2024/01/11 06:39:57;;;;;;;46.00;26.35;;;;;;;;;;5025467;28;20029;-83
2024/01/11 06:42:23;;;;;;;49.90;27.13;;;;;;;;;;5017661;28;20032;-82
2024/01/11 06:44:49;;;;;;;51.25;29.17;;;;;;;;;;5024761;28;20108;-83
2024/01/11 06:47:15;;;;;;;47.15;27.38;;;;;;;;;;5017703;28;20037;-82
2024/01/11 06:49:41;;;;;;;50.97;27.83;;;;;;;;;;5008666;28;20116;-81
2024/01/11 06:52:07;;;;;;;47.95;27.10;;;;;;;;;;5020555;28;20029;-81
2024/01/11 06:54:34;;;;;;;50.80;28.40;;;;;;;;;;5024412;28;20022;-82
2024/01/11 06:57:00;;;;;;;47.45;27.30;;;;;;;;;;5019514;28;20080;-82
2024/01/11 06:59:26;;;;;;;49.17;27.05;;;;;;;;;;5014140;28;20030;-83
2024/01/11 07:01:52;;;;;;;51.63;27.58;;;;;;;;;;5020796;28;20456;-83
2024/01/11 07:04:18;;;;;;;45.85;26.60;;;;;;;;;;5027535;28;20031;-83
2024/01/11 07:06:44;;;;;;;53.78;28.35;;;;;;;;;;5027258;28;20048;-84
2024/01/11 07:09:10;;;;;;;45.20;25.77;;;;;;;;;;5023645;28;20040;-83
2024/01/11 07:11:37;;;;;;;46.30;27.35;;;;;;;;;;5027956;28;20099;-83
2024/01/11 07:14:04;;;;;;;50.35;27.30;;;;;;;;;;5026687;28;20038;-82
2024/01/11 07:16:30;;;;;;;43.33;26.23;;;;;;;;;;5026213;28;20025;-82
2024/01/11 07:18:56;;;;;;;52.85;28.73;;;;;;;;;;5029053;28;20021;-83
2024/01/11 07:21:29;;;;;;;50.35;29.35;;;;;;;;;;5014495;28;20152;-83
2024/01/11 07:23:55;;;;;;;50.13;30.00;;;;;;;;;;5026732;28;20116;-83
2024/01/11 07:26:21;;;;;;;50.80;29.65;;;;;;;;;;4994680;28;20125;-83
2024/01/11 07:28:48;;;;;;;51.60;29.58;;;;;;;;;;5016718;28;20032;-79
2024/01/11 07:31:14;;;;;;;49.10;27.98;;;;;;;;;;5021653;28;20029;-82
2024/01/11 07:33:40;;;;;;;50.03;26.38;;;;;;;;;;5016953;28;20025;-83
2024/01/11 07:36:06;;;;;;;48.63;27.83;;;;;;;;;;5015200;28;20076;-87
2024/01/11 07:38:32;;;;;;;50.05;28.35;;;;;;;;;;5010817;28;20471;-81
2024/01/11 07:40:58;;;;;;;50.47;28.00;;;;;;;;;;5009719;28;20034;-81
2024/01/11 07:43:26;;;;;;;49.83;27.13;;;;;;;;;;5018938;28;20037;-84
2024/01/11 07:45:52;;;;;;;60.55;32.78;;;;;;;;;;5011604;28;20061;-78
2024/01/11 07:48:18;;;;;;;55.22;30.33;;;;;;;;;;5019780;28;20056;-83
2024/01/11 07:50:44;;;;;;;52.92;29.75;;;;;;;;;;5020637;28;20037;-86
2024/01/11 07:53:11;;;;;;;50.75;29.50;;;;;;;;;;5016059;28;20045;-84
2024/01/11 07:55:38;;;;;;;61.97;31.60;;;;;;;;;;5017628;28;20214;-86
2024/01/11 07:58:04;;;;;;;49.97;28.20;;;;;;;;;;5008229;28;20052;-85
2024/01/11 08:00:30;;;;;;;55.60;29.83;;;;;;;;;;5016797;28;20441;-85
2024/01/11 08:02:56;;;;;;;55.15;31.88;;;;;;;;;;5019483;28;20501;-85
2024/01/11 08:05:22;;;;;;;64.00;28.90;;;;;;;;;;5016500;28;20048;-85
2024/01/11 08:07:48;;;;;;;54.33;29.52;;;;;;;;;;4978836;28;1097848;-86
2024/01/11 08:10:14;;;;;;;55.20;29.73;;;;;;;;;;5015995;28;20044;-86
2024/01/11 08:12:40;;;;;;;49.28;29.55;;;;;;;;;;5018529;28;20470;-84
2024/01/11 08:15:07;;;;;;;49.20;28.38;;;;;;;;;;5017356;28;20026;-83
2024/01/11 08:17:33;;;;;;;66.07;35.10;;;;;;;;;;5014523;28;20084;-86
2024/01/11 08:19:59;;;;;;;54.65;31.10;;;;;;;;;;5017511;28;20076;-84
2024/01/11 08:22:25;;;;;;;55.42;30.98;;;;;;;;;;5028075;28;20037;-86
2024/01/11 08:24:51;;;;;;;51.53;29.65;;;;;;;;;;5023125;28;20041;-85
2024/01/11 08:27:17;;;;;;;51.83;28.85;;;;;;;;;;5027132;28;20489;-85
2024/01/11 08:29:43;;;;;;;46.42;26.98;;;;;;;;;;5019051;28;20030;-84
2024/01/11 08:32:09;;;;;;;48.85;29.60;;;;;;;;;;5019322;28;20033;-85
2024/01/11 08:34:35;;;;;;;55.60;29.65;;;;;;;;;;5023127;28;20029;-84
2024/01/11 08:37:02;;;;;;;56.08;31.23;;;;;;;;;;5019327;28;20041;-86
2024/01/11 08:39:28;;;;;;;59.10;32.53;;;;;;;;;;5019873;28;20127;-85
2024/01/11 08:41:54;;;;;;;64.60;33.78;;;;;;;;;;5024178;28;20531;-84
2024/01/11 08:44:20;;;;;;;63.13;33.75;;;;;;;;;;5010350;28;20459;-85
2024/01/11 08:46:46;;;;;;;54.03;30.80;;;;;;;;;;5026652;28;20471;-85
2024/01/11 08:49:12;;;;;;;53.95;30.88;;;;;;;;;;5026350;28;20156;-85
2024/01/11 08:51:39;;;;;;;55.05;30.88;;;;;;;;;;5012384;28;20383;-84
2024/01/11 08:54:08;;;;;;;60.03;31.13;;;;;;;;;;5023875;28;20104;-85
2024/01/11 08:56:35;;;;;;;56.20;31.95;;;;;;;;;;5024827;28;20410;-85
2024/01/11 08:59:01;;;;;;;59.40;33.47;;;;;;;;;;5026340;28;20049;-85
2024/01/11 09:01:27;;;;;;;63.67;33.88;;;;;;;;;;5021815;28;20033;-84
2024/01/11 09:03:53;;;;;;;53.33;30.65;;;;;;;;;;5017655;28;20043;-85
2024/01/11 09:06:19;;;;;;;54.10;31.10;;;;;;;;;;5028999;28;20064;-85
2024/01/11 09:08:45;;;;;;;59.70;32.70;;;;;;;;;;5038286;28;20538;-86
2024/01/11 09:11:11;;;;;;;55.90;32.38;;;;;;;;;;5030170;28;20029;-86
2024/01/11 09:13:37;;;;;;;51.78;32.22;;;;;;;;;;5021025;28;20112;-84
2024/01/11 09:16:04;;;;;;;52.85;29.08;;;;;;;;;;5019657;28;20057;-84
2024/01/11 09:18:30;;;;;;;54.67;30.88;;;;;;;;;;5012640;28;20029;-85
2024/01/11 09:20:56;;;;;;;47.95;28.60;;;;;;;;;;5013006;28;20124;-83
2024/01/11 09:23:22;;;;;;;40.47;24.98;;;;;;;;;;5028189;28;20273;-85
2024/01/11 09:25:48;;;;;;;53.00;28.02;;;;;;;;;;5028777;28;20025;-84
2024/01/11 09:28:15;;;;;;;43.15;25.25;;;;;;;;;;5022981;28;20060;-84
2024/01/11 09:30:41;;;;;;;46.75;28.33;;;;;;;;;;5022629;28;20379;-86
2024/01/11 09:33:07;;;;;;;56.58;34.13;;;;;;;;;;5026655;28;20045;-85
2024/01/11 09:35:33;;;;;;;50.92;29.67;;;;;;;;;;5024106;28;20393;-85
2024/01/11 09:38:00;;;;;;;52.28;31.13;;;;;;;;;;5024123;28;20040;-84
2024/01/11 09:40:26;;;;;;;53.42;30.83;;;;;;;;;;5024456;28;20033;-85
2024/01/11 09:42:53;;;;;;;51.97;27.05;;;;;;;;;;5023915;28;20057;-85
2024/01/11 09:45:19;;;;;;;48.70;28.30;;;;;;;;;;5025286;28;20410;-87
2024/01/11 09:47:46;;;;;;;42.83;26.63;;;;;;;;;;5012497;28;20079;-84
2024/01/11 09:50:17;;;;;;;47.67;28.45;;;;;;;;;;5018539;28;20116;-81
2024/01/11 09:52:49;;;;;;;47.38;28.52;;;;;;;;;;5009131;28;20735;-83
2024/01/11 09:55:16;;;;;;;46.80;27.23;;;;;;;;;;5013674;28;20040;-84
2024/01/11 09:57:45;;;;;;;47.88;28.60;;;;;;;;;;5015142;28;20087;-81
2024/01/11 10:00:13;;;;;;;48.53;29.65;;;;;;;;;;5016710;28;20039;-80
2024/01/11 10:02:39;;;;;;;48.75;26.95;;;;;;;;;;5015339;28;20344;-80
2024/01/11 10:05:06;;;;;;;52.05;28.25;;;;;;;;;;5016065;28;20029;-81
2024/01/11 10:07:33;;;;;;;50.65;26.02;;;;;;;;;;5014958;28;20049;-81
2024/01/11 10:10:00;;;;;;;48.92;27.38;;;;;;;;;;5011611;28;20038;-81
2024/01/11 10:12:26;;;;;;;42.22;25.48;;;;;;;;;;5016819;28;20033;-83
2024/01/11 10:14:52;;;;;;;50.20;27.40;;;;;;;;;;5021346;28;20112;-80
2024/01/11 10:17:18;;;;;;;44.08;25.35;;;;;;;;;;5018893;28;20068;-80
2024/01/11 10:19:44;;;;;;;46.10;26.38;;;;;;;;;;5017176;28;20116;-77
2024/01/11 10:22:16;;;;;;;43.58;25.80;;;;;;;;;;5017757;28;20172;-79
2024/01/11 10:24:42;;;;;;;49.33;27.48;;;;;;;;;;5019470;28;20033;-79
2024/01/11 10:27:11;;;;;;;46.55;26.60;;;;;;;;;;5023025;28;20048;-79
2024/01/11 10:29:37;;;;;;;40.35;25.67;;;;;;;;;;5023797;28;20083;-84
2024/01/11 10:32:04;;;;;;;42.53;25.15;;;;;;;;;;5025826;28;20034;-81
2024/01/11 10:34:30;;;;;;;41.22;23.08;;;;;;;;;;5020035;28;20018;-81
2024/01/11 10:36:56;;;;;;;48.90;26.02;;;;;;;;;;5011243;28;20033;-83
2024/01/11 10:39:26;;;;;;;38.85;24.50;;;;;;;;;;5020675;28;20430;-84
2024/01/11 10:41:54;;;;;;;39.60;24.10;;;;;;;;;;5016688;28;20058;-82
2024/01/11 10:44:21;;;;;;;37.85;22.73;;;;;;;;;;5024393;28;20047;-78
2024/01/11 10:46:48;;;;;;;39.78;23.33;;;;;;;;;;5009936;28;20032;-81
2024/01/11 10:49:18;;;;;;;39.42;24.15;;;;;;;;;;5013055;28;20030;-80
2024/01/11 10:51:45;;;;;;;37.63;23.17;;;;;;;;;;5014527;28;20033;-78
2024/01/11 10:54:14;;;;;;;36.78;22.65;;;;;;;;;;5027126;28;20697;-81
2024/01/11 10:56:43;;;;;;;36.38;22.52;;;;;;;;;;5020510;28;20032;-84
2024/01/11 10:59:10;;;;;;;43.17;23.75;;;;;;;;;;5028259;28;20025;-82
2024/01/11 11:01:36;;;;;;;39.50;23.52;;;;;;;;;;5026209;28;20132;-85
2024/01/11 11:04:03;;;;;;;35.42;22.38;;;;;;;;;;5027176;28;20033;-82
2024/01/11 11:06:30;;;;;;;34.95;22.23;;;;;;;;;;5020328;28;20045;-82
2024/01/11 11:08:56;;;;;;;38.92;23.17;;;;;;;;;;5022959;28;20490;-83
2024/01/11 11:11:23;;;;;;;45.72;23.92;;;;;;;;;;5020506;28;20083;-82
2024/01/11 11:13:50;;;;;;;37.08;22.60;;;;;;;;;;5003042;28;20414;-83
2024/01/11 11:16:16;;;;;;;38.90;24.10;;;;;;;;;;5013958;28;21794;-79
2024/01/11 11:18:43;;;;;;;33.42;22.13;;;;;;;;;;5019258;28;20112;-79
2024/01/11 11:21:12;;;;;;;38.40;22.90;;;;;;;;;;5031716;28;20033;-78
2024/01/11 11:23:38;;;;;;;39.92;23.25;;;;;;;;;;5019964;28;20047;-85
2024/01/11 11:26:07;;;;;;;37.70;21.40;;;;;;;;;;5021527;28;20109;-83
2024/01/11 11:28:34;;;;;;;37.22;21.92;;;;;;;;;;5023074;28;20040;-82
2024/01/11 11:31:02;;;;;;;33.55;19.77;;;;;;;;;;5020063;28;20040;-85
2024/01/11 11:33:30;;;;;;;34.65;20.30;;;;;;;;;;5020873;28;20380;-81
2024/01/11 11:35:59;;;;;;;36.55;21.48;;;;;;;;;;5019135;28;20155;-81
2024/01/11 11:38:26;;;;;;;33.65;20.80;;;;;;;;;;5016369;28;20030;-82
2024/01/11 11:40:53;;;;;;;31.75;20.95;;;;;;;;;;5023394;28;20095;-87
2024/01/11 11:43:21;;;;;;;32.83;20.75;;;;;;;;;;5012015;28;20045;-79
2024/01/11 11:45:47;;;;;;;36.83;22.42;;;;;;;;;;5020878;28;20032;-83
2024/01/11 11:48:28;;;;;;;32.10;19.50;;;;;;;;;;5015363;28;20491;-81
2024/01/11 11:51:10;;;;;;;33.60;21.35;;;;;;;;;;5012920;28;20360;-80
2024/01/11 11:53:40;;;;;;;33.17;23.20;;;;;;;;;;5011678;28;20029;-78
2024/01/11 11:56:06;;;;;;;29.70;18.67;;;;;;;;;;5021812;28;20021;-82
2024/01/11 11:58:33;;;;;;;32.88;20.15;;;;;;;;;;5014894;28;20033;-77
2024/01/11 12:01:00;;;;;;;34.65;20.63;;;;;;;;;;5023461;28;20053;-81
2024/01/11 12:03:33;;;;;;;33.72;21.92;;;;;;;;;;5000664;28;20022;-80
2024/01/11 12:06:00;;;;;;;41.38;21.92;;;;;;;;;;5018896;28;20041;-80
2024/01/11 12:08:27;;;;;;;37.63;21.42;;;;;;;;;;5020905;28;20034;-77
2024/01/11 12:10:53;;;;;;;30.42;18.38;;;;;;;;;;5012047;28;20084;-77
2024/01/11 12:13:19;;;;;;;46.58;25.27;;;;;;;;;;5019699;28;20081;-77
2024/01/11 12:15:46;;;;;;;28.27;17.02;;;;;;;;;;5024679;28;20033;-79
2024/01/11 12:18:12;;;;;;;33.75;19.48;;;;;;;;;;5010424;28;20026;-79
2024/01/11 12:20:38;;;;;;;36.53;20.88;;;;;;;;;;5024717;28;20037;-79
2024/01/11 12:23:04;;;;;;;34.17;21.02;;;;;;;;;;5028247;28;20034;-79
2024/01/11 12:25:31;;;;;;;36.17;21.40;;;;;;;;;;5010683;28;20072;-82
2024/01/11 12:27:57;;;;;;;37.67;23.80;;;;;;;;;;5010754;28;20037;-79
2024/01/11 12:30:24;;;;;;;38.35;23.30;;;;;;;;;;5010055;28;20176;-80
2024/01/11 12:32:50;;;;;;;35.00;20.92;;;;;;;;;;5013629;28;20056;-80
2024/01/11 12:35:17;;;;;;;34.08;19.27;;;;;;;;;;5017046;28;20167;-80
2024/01/11 12:37:55;;;;;;;41.20;23.67;;;;;;;;;;5021773;28;20033;-80
2024/01/11 12:40:27;;;;;;;39.92;18.85;;;;;;;;;;5019672;28;20037;-82
2024/01/11 12:42:53;;;;;;;39.35;23.42;;;;;;;;;;5029096;28;20029;-80
2024/01/11 12:45:19;;;;;;;86.60;32.55;;;;;;;;;;5016949;28;20418;-80
2024/01/11 12:47:45;;;;;;;50.65;25.75;;;;;;;;;;5016433;28;20029;-80
2024/01/11 12:50:15;;;;;;;44.05;22.92;;;;;;;;;;5010751;28;20121;-82
2024/01/11 12:52:41;;;;;;;35.72;20.27;;;;;;;;;;5025604;28;20459;-78
2024/01/11 12:55:09;;;;;;;32.10;17.80;;;;;;;;;;5011614;28;20112;-79
2024/01/11 12:57:35;;;;;;;39.60;23.42;;;;;;;;;;5027728;28;20109;-82
2024/01/11 13:00:11;;;;;;;34.85;21.35;;;;;;;;;;5014359;28;20037;-78
2024/01/11 13:02:37;;;;;;;32.33;19.35;;;;;;;;;;5014834;28;20065;-79
2024/01/11 13:05:04;;;;;;;26.95;17.23;;;;;;;;;;5027636;28;20037;-79
2024/01/11 13:07:32;;;;;;;27.55;15.90;;;;;;;;;;5029224;28;20053;-79
2024/01/11 13:09:58;;;;;;;29.20;18.20;;;;;;;;;;5028676;28;20104;-79
2024/01/11 13:12:24;;;;;;;33.65;16.70;;;;;;;;;;5027427;28;20519;-79
2024/01/11 13:14:52;;;;;;;32.05;18.15;;;;;;;;;;5034161;28;20032;-79
2024/01/11 13:17:18;;;;;;;27.10;16.52;;;;;;;;;;5029916;28;20025;-78
2024/01/11 13:19:44;;;;;;;31.95;17.23;;;;;;;;;;5025810;28;20423;-79
2024/01/11 13:22:11;;;;;;;31.60;18.13;;;;;;;;;;5012949;28;20076;-78
2024/01/11 13:24:37;;;;;;;36.15;17.15;;;;;;;;;;5028998;28;20034;-78
2024/01/11 13:27:03;;;;;;;32.40;17.38;;;;;;;;;;5013319;28;20034;-78
2024/01/11 13:29:29;;;;;;;28.35;16.85;;;;;;;;;;5038013;28;20582;-78
2024/01/11 13:31:55;;;;;;;39.38;20.10;;;;;;;;;;5028077;28;20021;-79
2024/01/11 13:34:21;;;;;;;39.08;20.02;;;;;;;;;;5029379;28;20467;-78
2024/01/11 13:36:47;;;;;;;39.15;20.33;;;;;;;;;;5029256;28;20025;-78
2024/01/11 13:39:14;;;;;;;33.03;19.42;;;;;;;;;;5016993;28;20041;-77
2024/01/11 13:41:40;;;;;;;36.17;19.77;;;;;;;;;;5011383;28;20041;-78
2024/01/11 13:44:06;;;;;;;46.03;19.05;;;;;;;;;;5014235;28;20017;-80
2024/01/11 13:46:33;;;;;;;37.28;18.27;;;;;;;;;;5014051;28;20068;-77
2024/01/11 13:48:59;;;;;;;32.17;17.13;;;;;;;;;;5006588;28;20034;-80
2024/01/11 13:51:25;;;;;;;35.08;16.30;;;;;;;;;;5009257;28;20057;-78
2024/01/11 13:53:51;;;;;;;33.10;15.98;;;;;;;;;;5008500;28;20080;-79
2024/01/11 13:56:17;;;;;;;36.97;16.23;;;;;;;;;;5012848;28;20042;-77
2024/01/11 13:58:44;;;;;;;30.73;15.25;;;;;;;;;;5007657;28;20038;-77
2024/01/11 14:01:11;;;;;;;29.40;15.13;;;;;;;;;;5013997;28;20045;-77
2024/01/11 14:03:37;;;;;;;40.53;19.38;;;;;;;;;;5010232;28;20033;-77
2024/01/11 14:06:03;;;;;;;29.33;17.35;;;;;;;;;;5007289;28;20113;-77
2024/01/11 14:08:29;;;;;;;30.15;17.02;;;;;;;;;;5027788;28;20057;-80
2024/01/11 14:10:56;;;;;;;41.63;22.40;;;;;;;;;;5016533;28;20497;-78
2024/01/11 14:13:22;;;;;;;44.17;22.58;;;;;;;;;;5011366;28;20032;-78